sensor_id;sensor_type;location;lat;lon;timestamp;temperature;humidity
26182;DHT22;13927;51.534;11.866;2023-07-29T00:00:25;20.40;99.90
26182;DHT22;13927;51.534;11.866;2023-07-29T00:02:54;20.40;99.90
26182;DHT22;13927;51.534;11.866;2023-07-29T00:05:23;20.40;99.90
26182;DHT22;13927;51.534;11.866;2023-07-29T00:07:51;20.50;99.90
26182;DHT22;13927;51.534;11.866;2023-07-29T00:10:20;20.50;99.90
26182;DHT22;13927;51.534;11.866;2023-07-29T00:12:48;20.50;99.90
26182;DHT22;13927;51.534;11.866;2023-07-29T00:15:18;20.40;99.90
26182;DHT22;13927;51.534;11.866;2023-07-29T00:17:48;20.50;99.90
26182;DHT22;13927;51.534;11.866;2023-07-29T00:20:16;20.50;99.90
26182;DHT22;13927;51.534;11.866;2023-07-29T00:22:44;20.50;99.90
26182;DHT22;13927;51.534;11.866;2023-07-29T00:25:13;20.50;99.90
26182;DHT22;13927;51.534;11.866;2023-07-29T00:27:40;20.50;99.90
26182;DHT22;13927;51.534;11.866;2023-07-29T00:30:09;20.50;99.90
26182;DHT22;13927;51.534;11.866;2023-07-29T00:32:39;20.50;99.90
26182;DHT22;13927;51.534;11.866;2023-07-29T00:35:08;20.50;99.90
26182;DHT22;13927;51.534;11.866;2023-07-29T00:37:36;20.50;99.90
26182;DHT22;13927;51.534;11.866;2023-07-29T00:40:19;20.50;99.90
26182;DHT22;13927;51.534;11.866;2023-07-29T00:42:48;20.50;99.90
26182;DHT22;13927;51.534;11.866;2023-07-29T00:45:20;20.50;99.90
26182;DHT22;13927;51.534;11.866;2023-07-29T00:47:52;20.50;99.90
26182;DHT22;13927;51.534;11.866;2023-07-29T00:50:24;20.50;99.90
26182;DHT22;13927;51.534;11.866;2023-07-29T00:52:56;20.50;99.90
26182;DHT22;13927;51.534;11.866;2023-07-29T00:55:33;20.40;99.90
26182;DHT22;13927;51.534;11.866;2023-07-29T00:58:00;20.40;99.90
26182;DHT22;13927;51.534;11.866;2023-07-29T01:00:28;20.40;99.90
26182;DHT22;13927;51.534;11.866;2023-07-29T01:02:59;20.30;99.90
26182;DHT22;13927;51.534;11.866;2023-07-29T01:05:49;20.20;99.90
26182;DHT22;13927;51.534;11.866;2023-07-29T01:08:40;20.10;99.90
26182;DHT22;13927;51.534;11.866;2023-07-29T01:14:41;20.10;99.90
26182;DHT22;13927;51.534;11.866;2023-07-29T01:17:35;20.10;99.90
26182;DHT22;13927;51.534;11.866;2023-07-29T01:20:25;20.10;99.90
26182;DHT22;13927;51.534;11.866;2023-07-29T01:22:54;20.00;99.90
26182;DHT22;13927;51.534;11.866;2023-07-29T01:25:22;20.10;99.90
26182;DHT22;13927;51.534;11.866;2023-07-29T01:27:53;20.10;99.90
26182;DHT22;13927;51.534;11.866;2023-07-29T01:30:31;20.10;99.90
26182;DHT22;13927;51.534;11.866;2023-07-29T01:36:06;20.20;99.90
26182;DHT22;13927;51.534;11.866;2023-07-29T01:42:22;20.30;99.90
26182;DHT22;13927;51.534;11.866;2023-07-29T01:44:52;20.30;99.90
26182;DHT22;13927;51.534;11.866;2023-07-29T01:47:21;20.30;99.90
26182;DHT22;13927;51.534;11.866;2023-07-29T01:49:53;20.30;99.90
26182;DHT22;13927;51.534;11.866;2023-07-29T01:52:23;20.30;99.90
26182;DHT22;13927;51.534;11.866;2023-07-29T01:54:59;20.30;99.90
26182;DHT22;13927;51.534;11.866;2023-07-29T01:57:27;20.30;99.90
26182;DHT22;13927;51.534;11.866;2023-07-29T01:59:56;20.30;99.90
26182;DHT22;13927;51.534;11.866;2023-07-29T02:02:26;20.30;99.90
26182;DHT22;13927;51.534;11.866;2023-07-29T02:04:56;20.30;99.90
26182;DHT22;13927;51.534;11.866;2023-07-29T02:07:24;20.20;99.90
26182;DHT22;13927;51.534;11.866;2023-07-29T02:09:53;20.20;99.90
26182;DHT22;13927;51.534;11.866;2023-07-29T02:12:22;20.20;99.90
26182;DHT22;13927;51.534;11.866;2023-07-29T02:14:50;20.20;99.90
26182;DHT22;13927;51.534;11.866;2023-07-29T02:17:17;20.10;99.90
26182;DHT22;13927;51.534;11.866;2023-07-29T02:19:47;20.10;99.90
26182;DHT22;13927;51.534;11.866;2023-07-29T02:22:18;20.00;99.90
26182;DHT22;13927;51.534;11.866;2023-07-29T02:24:46;19.90;99.90
26182;DHT22;13927;51.534;11.866;2023-07-29T02:27:19;19.80;99.90
26182;DHT22;13927;51.534;11.866;2023-07-29T02:29:47;19.70;99.90
26182;DHT22;13927;51.534;11.866;2023-07-29T02:32:17;19.70;99.90
26182;DHT22;13927;51.534;11.866;2023-07-29T02:34:47;19.70;99.90
26182;DHT22;13927;51.534;11.866;2023-07-29T02:37:18;19.60;99.90
26182;DHT22;13927;51.534;11.866;2023-07-29T02:39:47;19.60;99.90
26182;DHT22;13927;51.534;11.866;2023-07-29T02:42:15;19.60;99.90
26182;DHT22;13927;51.534;11.866;2023-07-29T02:44:43;19.60;99.90
26182;DHT22;13927;51.534;11.866;2023-07-29T02:47:13;19.50;99.90
26182;DHT22;13927;51.534;11.866;2023-07-29T02:49:44;19.50;99.90
26182;DHT22;13927;51.534;11.866;2023-07-29T02:52:12;19.50;99.90
26182;DHT22;13927;51.534;11.866;2023-07-29T02:54:39;19.50;99.90
26182;DHT22;13927;51.534;11.866;2023-07-29T02:57:07;19.50;99.90
26182;DHT22;13927;51.534;11.866;2023-07-29T02:59:35;19.50;99.90
26182;DHT22;13927;51.534;11.866;2023-07-29T03:02:04;19.50;99.90
26182;DHT22;13927;51.534;11.866;2023-07-29T03:04:32;19.40;99.90
26182;DHT22;13927;51.534;11.866;2023-07-29T03:07:00;19.40;99.90
26182;DHT22;13927;51.534;11.866;2023-07-29T03:09:28;19.30;99.90
26182;DHT22;13927;51.534;11.866;2023-07-29T03:11:56;19.30;99.90
26182;DHT22;13927;51.534;11.866;2023-07-29T03:14:26;19.30;99.90
26182;DHT22;13927;51.534;11.866;2023-07-29T03:16:55;19.20;99.90
26182;DHT22;13927;51.534;11.866;2023-07-29T03:19:24;19.20;99.90
26182;DHT22;13927;51.534;11.866;2023-07-29T03:21:55;19.20;99.90
26182;DHT22;13927;51.534;11.866;2023-07-29T03:24:29;19.20;99.90
26182;DHT22;13927;51.534;11.866;2023-07-29T03:26:57;19.20;99.90
26182;DHT22;13927;51.534;11.866;2023-07-29T03:29:24;19.20;99.90
26182;DHT22;13927;51.534;11.866;2023-07-29T03:31:55;19.10;99.90
26182;DHT22;13927;51.534;11.866;2023-07-29T03:34:23;19.00;99.90
26182;DHT22;13927;51.534;11.866;2023-07-29T03:36:52;19.00;99.90
26182;DHT22;13927;51.534;11.866;2023-07-29T03:39:20;19.00;99.90
26182;DHT22;13927;51.534;11.866;2023-07-29T03:41:49;18.90;99.90
26182;DHT22;13927;51.534;11.866;2023-07-29T03:44:16;18.90;99.90
26182;DHT22;13927;51.534;11.866;2023-07-29T03:46:46;18.90;99.90
26182;DHT22;13927;51.534;11.866;2023-07-29T03:49:17;18.90;99.90
26182;DHT22;13927;51.534;11.866;2023-07-29T03:51:47;18.90;99.90
26182;DHT22;13927;51.534;11.866;2023-07-29T03:54:17;18.90;99.90
26182;DHT22;13927;51.534;11.866;2023-07-29T03:56:46;18.90;99.90
26182;DHT22;13927;51.534;11.866;2023-07-29T03:59:16;18.90;99.90
26182;DHT22;13927;51.534;11.866;2023-07-29T04:01:49;19.00;99.90
26182;DHT22;13927;51.534;11.866;2023-07-29T04:04:16;19.00;99.90
26182;DHT22;13927;51.534;11.866;2023-07-29T04:06:44;19.10;99.90
26182;DHT22;13927;51.534;11.866;2023-07-29T04:09:14;19.20;99.90
26182;DHT22;13927;51.534;11.866;2023-07-29T04:11:41;19.30;99.90
26182;DHT22;13927;51.534;11.866;2023-07-29T04:14:11;19.40;99.90
26182;DHT22;13927;51.534;11.866;2023-07-29T04:16:41;19.50;99.90
26182;DHT22;13927;51.534;11.866;2023-07-29T04:19:09;19.60;99.90
26182;DHT22;13927;51.534;11.866;2023-07-29T04:21:38;19.60;99.90
26182;DHT22;13927;51.534;11.866;2023-07-29T04:24:09;19.60;99.90
26182;DHT22;13927;51.534;11.866;2023-07-29T04:26:39;19.70;99.90
26182;DHT22;13927;51.534;11.866;2023-07-29T04:29:16;19.70;99.90
26182;DHT22;13927;51.534;11.866;2023-07-29T04:32:12;19.80;99.90
26182;DHT22;13927;51.534;11.866;2023-07-29T04:34:42;19.80;99.90
26182;DHT22;13927;51.534;11.866;2023-07-29T04:37:13;19.80;99.90
26182;DHT22;13927;51.534;11.866;2023-07-29T04:39:51;19.90;99.90
26182;DHT22;13927;51.534;11.866;2023-07-29T04:42:21;19.90;99.90
26182;DHT22;13927;51.534;11.866;2023-07-29T04:44:53;19.90;99.90
26182;DHT22;13927;51.534;11.866;2023-07-29T04:47:48;20.10;99.90
26182;DHT22;13927;51.534;11.866;2023-07-29T04:50:40;20.20;99.90
26182;DHT22;13927;51.534;11.866;2023-07-29T04:53:26;20.50;99.90
26182;DHT22;13927;51.534;11.866;2023-07-29T04:56:00;20.70;99.90
26182;DHT22;13927;51.534;11.866;2023-07-29T04:58:30;20.80;99.90
26182;DHT22;13927;51.534;11.866;2023-07-29T05:01:03;20.90;99.90
26182;DHT22;13927;51.534;11.866;2023-07-29T05:03:33;21.10;99.90
26182;DHT22;13927;51.534;11.866;2023-07-29T05:06:06;21.20;99.90
26182;DHT22;13927;51.534;11.866;2023-07-29T05:08:41;21.20;99.90
26182;DHT22;13927;51.534;11.866;2023-07-29T05:11:15;21.20;99.90
26182;DHT22;13927;51.534;11.866;2023-07-29T05:13:43;21.30;99.90
26182;DHT22;13927;51.534;11.866;2023-07-29T05:16:32;21.20;99.90
26182;DHT22;13927;51.534;11.866;2023-07-29T05:19:00;21.20;99.90
26182;DHT22;13927;51.534;11.866;2023-07-29T05:21:31;21.30;99.90
26182;DHT22;13927;51.534;11.866;2023-07-29T05:24:01;21.30;99.90
26182;DHT22;13927;51.534;11.866;2023-07-29T05:26:31;21.30;99.90
26182;DHT22;13927;51.534;11.866;2023-07-29T05:29:04;21.30;99.90
26182;DHT22;13927;51.534;11.866;2023-07-29T05:31:33;21.40;99.90
26182;DHT22;13927;51.534;11.866;2023-07-29T05:33:59;21.50;99.90
26182;DHT22;13927;51.534;11.866;2023-07-29T05:36:25;21.50;99.90
26182;DHT22;13927;51.534;11.866;2023-07-29T05:38:52;21.60;99.90
26182;DHT22;13927;51.534;11.866;2023-07-29T05:41:18;21.70;99.90
26182;DHT22;13927;51.534;11.866;2023-07-29T05:43:45;21.90;99.90
26182;DHT22;13927;51.534;11.866;2023-07-29T05:46:12;22.10;99.90
26182;DHT22;13927;51.534;11.866;2023-07-29T05:48:39;22.40;99.90
26182;DHT22;13927;51.534;11.866;2023-07-29T05:51:05;22.50;99.90
26182;DHT22;13927;51.534;11.866;2023-07-29T05:53:32;22.50;99.90
26182;DHT22;13927;51.534;11.866;2023-07-29T05:55:58;22.50;99.90
26182;DHT22;13927;51.534;11.866;2023-07-29T05:58:24;22.50;99.90
26182;DHT22;13927;51.534;11.866;2023-07-29T06:00:51;22.60;99.90
26182;DHT22;13927;51.534;11.866;2023-07-29T06:03:17;22.40;99.90
26182;DHT22;13927;51.534;11.866;2023-07-29T06:05:43;22.30;99.90
26182;DHT22;13927;51.534;11.866;2023-07-29T06:08:09;22.20;99.90
26182;DHT22;13927;51.534;11.866;2023-07-29T06:10:35;22.10;99.90
26182;DHT22;13927;51.534;11.866;2023-07-29T06:13:02;22.30;99.90
26182;DHT22;13927;51.534;11.866;2023-07-29T06:15:28;22.50;99.90
26182;DHT22;13927;51.534;11.866;2023-07-29T06:17:54;22.60;99.90
26182;DHT22;13927;51.534;11.866;2023-07-29T06:20:20;22.70;99.90
26182;DHT22;13927;51.534;11.866;2023-07-29T06:22:47;23.00;99.90
26182;DHT22;13927;51.534;11.866;2023-07-29T06:25:13;22.90;99.90
26182;DHT22;13927;51.534;11.866;2023-07-29T06:27:40;22.80;99.90
26182;DHT22;13927;51.534;11.866;2023-07-29T06:30:06;22.70;99.90
26182;DHT22;13927;51.534;11.866;2023-07-29T06:32:34;22.80;99.90
26182;DHT22;13927;51.534;11.866;2023-07-29T06:35:01;22.80;99.90
26182;DHT22;13927;51.534;11.866;2023-07-29T06:37:27;22.90;99.90
26182;DHT22;13927;51.534;11.866;2023-07-29T06:39:53;23.00;99.90
26182;DHT22;13927;51.534;11.866;2023-07-29T06:42:19;23.00;99.90
26182;DHT22;13927;51.534;11.866;2023-07-29T06:44:45;23.00;99.90
26182;DHT22;13927;51.534;11.866;2023-07-29T06:47:11;23.00;99.90
26182;DHT22;13927;51.534;11.866;2023-07-29T06:49:38;22.90;99.90
26182;DHT22;13927;51.534;11.866;2023-07-29T06:52:04;22.90;99.90
26182;DHT22;13927;51.534;11.866;2023-07-29T06:54:31;22.80;99.90
26182;DHT22;13927;51.534;11.866;2023-07-29T06:56:57;22.70;99.90
26182;DHT22;13927;51.534;11.866;2023-07-29T06:59:23;22.70;99.90
26182;DHT22;13927;51.534;11.866;2023-07-29T07:01:52;22.60;99.90
26182;DHT22;13927;51.534;11.866;2023-07-29T07:04:18;22.60;99.90
26182;DHT22;13927;51.534;11.866;2023-07-29T07:06:44;22.50;99.90
26182;DHT22;13927;51.534;11.866;2023-07-29T07:09:09;22.40;99.90
26182;DHT22;13927;51.534;11.866;2023-07-29T07:11:35;22.40;99.90
26182;DHT22;13927;51.534;11.866;2023-07-29T07:14:01;22.40;99.90
26182;DHT22;13927;51.534;11.866;2023-07-29T07:16:27;22.40;99.90
26182;DHT22;13927;51.534;11.866;2023-07-29T07:18:56;22.30;99.90
26182;DHT22;13927;51.534;11.866;2023-07-29T07:21:22;22.30;99.90
26182;DHT22;13927;51.534;11.866;2023-07-29T07:23:50;22.20;99.90
26182;DHT22;13927;51.534;11.866;2023-07-29T07:26:16;22.20;99.90
26182;DHT22;13927;51.534;11.866;2023-07-29T07:28:42;22.10;99.90
26182;DHT22;13927;51.534;11.866;2023-07-29T07:31:08;22.10;99.90
26182;DHT22;13927;51.534;11.866;2023-07-29T07:33:34;22.00;99.90
26182;DHT22;13927;51.534;11.866;2023-07-29T07:36:00;22.10;99.90
26182;DHT22;13927;51.534;11.866;2023-07-29T07:38:26;22.20;99.90
26182;DHT22;13927;51.534;11.866;2023-07-29T07:40:56;22.30;99.90
26182;DHT22;13927;51.534;11.866;2023-07-29T07:43:23;22.40;99.90
26182;DHT22;13927;51.534;11.866;2023-07-29T07:45:49;22.40;99.90
26182;DHT22;13927;51.534;11.866;2023-07-29T07:48:16;22.50;99.90
26182;DHT22;13927;51.534;11.866;2023-07-29T07:50:43;22.80;99.90
26182;DHT22;13927;51.534;11.866;2023-07-29T07:53:09;23.10;99.90
26182;DHT22;13927;51.534;11.866;2023-07-29T07:55:36;23.40;99.90
26182;DHT22;13927;51.534;11.866;2023-07-29T07:58:02;23.60;99.90
26182;DHT22;13927;51.534;11.866;2023-07-29T08:00:28;23.80;99.90
26182;DHT22;13927;51.534;11.866;2023-07-29T08:02:54;23.80;99.90
26182;DHT22;13927;51.534;11.866;2023-07-29T08:05:20;24.00;99.90
26182;DHT22;13927;51.534;11.866;2023-07-29T08:07:47;24.10;99.90
26182;DHT22;13927;51.534;11.866;2023-07-29T08:10:13;24.20;99.90
26182;DHT22;13927;51.534;11.866;2023-07-29T08:12:40;24.50;99.90
26182;DHT22;13927;51.534;11.866;2023-07-29T08:15:07;24.50;99.90
26182;DHT22;13927;51.534;11.866;2023-07-29T08:17:33;24.30;99.90
26182;DHT22;13927;51.534;11.866;2023-07-29T08:19:59;24.20;99.90
26182;DHT22;13927;51.534;11.866;2023-07-29T08:22:25;24.00;99.90
26182;DHT22;13927;51.534;11.866;2023-07-29T08:24:50;24.00;99.90
26182;DHT22;13927;51.534;11.866;2023-07-29T08:27:17;23.90;99.90
26182;DHT22;13927;51.534;11.866;2023-07-29T08:29:43;23.80;99.90
26182;DHT22;13927;51.534;11.866;2023-07-29T08:32:10;23.70;99.90
26182;DHT22;13927;51.534;11.866;2023-07-29T08:34:36;23.80;99.90
26182;DHT22;13927;51.534;11.866;2023-07-29T08:37:02;23.90;99.90
26182;DHT22;13927;51.534;11.866;2023-07-29T08:39:28;24.00;99.90
26182;DHT22;13927;51.534;11.866;2023-07-29T08:42:07;24.10;99.90
26182;DHT22;13927;51.534;11.866;2023-07-29T08:44:41;24.10;99.90
26182;DHT22;13927;51.534;11.866;2023-07-29T08:47:07;24.20;99.90
26182;DHT22;13927;51.534;11.866;2023-07-29T08:49:34;24.30;99.90
26182;DHT22;13927;51.534;11.866;2023-07-29T08:52:01;24.40;99.90
26182;DHT22;13927;51.534;11.866;2023-07-29T08:54:28;24.30;99.90
26182;DHT22;13927;51.534;11.866;2023-07-29T08:56:54;24.30;99.90
26182;DHT22;13927;51.534;11.866;2023-07-29T08:59:21;24.20;99.90
26182;DHT22;13927;51.534;11.866;2023-07-29T09:01:47;24.30;99.90
26182;DHT22;13927;51.534;11.866;2023-07-29T09:04:13;24.50;99.90
26182;DHT22;13927;51.534;11.866;2023-07-29T09:06:40;24.60;99.90
26182;DHT22;13927;51.534;11.866;2023-07-29T09:09:08;24.80;99.90
26182;DHT22;13927;51.534;11.866;2023-07-29T09:11:35;25.00;99.90
26182;DHT22;13927;51.534;11.866;2023-07-29T09:14:02;25.10;99.90
26182;DHT22;13927;51.534;11.866;2023-07-29T09:16:29;25.40;99.90
26182;DHT22;13927;51.534;11.866;2023-07-29T09:19:01;25.60;99.90
26182;DHT22;13927;51.534;11.866;2023-07-29T09:21:29;25.70;99.90
26182;DHT22;13927;51.534;11.866;2023-07-29T09:23:55;25.80;99.90
26182;DHT22;13927;51.534;11.866;2023-07-29T09:26:26;25.90;99.90
26182;DHT22;13927;51.534;11.866;2023-07-29T09:28:55;25.90;99.90
26182;DHT22;13927;51.534;11.866;2023-07-29T09:31:24;25.90;99.90
26182;DHT22;13927;51.534;11.866;2023-07-29T09:33:59;25.90;99.90
26182;DHT22;13927;51.534;11.866;2023-07-29T09:36:27;25.80;99.90
26182;DHT22;13927;51.534;11.866;2023-07-29T09:38:56;25.80;99.90
26182;DHT22;13927;51.534;11.866;2023-07-29T09:41:25;25.90;99.90
26182;DHT22;13927;51.534;11.866;2023-07-29T09:44:02;25.80;99.90
26182;DHT22;13927;51.534;11.866;2023-07-29T09:46:37;25.60;99.90
26182;DHT22;13927;51.534;11.866;2023-07-29T09:49:04;25.80;99.90
26182;DHT22;13927;51.534;11.866;2023-07-29T09:51:31;25.90;99.90
26182;DHT22;13927;51.534;11.866;2023-07-29T09:54:02;26.00;99.90
26182;DHT22;13927;51.534;11.866;2023-07-29T09:56:28;25.90;99.90
26182;DHT22;13927;51.534;11.866;2023-07-29T09:58:58;25.80;99.90
26182;DHT22;13927;51.534;11.866;2023-07-29T10:01:24;25.70;99.90
26182;DHT22;13927;51.534;11.866;2023-07-29T10:03:51;25.70;99.90
26182;DHT22;13927;51.534;11.866;2023-07-29T10:06:17;25.60;99.90
26182;DHT22;13927;51.534;11.866;2023-07-29T10:08:44;25.40;99.90
26182;DHT22;13927;51.534;11.866;2023-07-29T10:11:11;25.30;99.90
26182;DHT22;13927;51.534;11.866;2023-07-29T10:13:38;25.30;99.90
26182;DHT22;13927;51.534;11.866;2023-07-29T10:16:04;25.20;99.90
26182;DHT22;13927;51.534;11.866;2023-07-29T10:18:32;25.30;99.90
26182;DHT22;13927;51.534;11.866;2023-07-29T10:21:01;25.20;99.90
26182;DHT22;13927;51.534;11.866;2023-07-29T10:23:34;25.30;99.90
26182;DHT22;13927;51.534;11.866;2023-07-29T10:26:10;25.40;99.90
26182;DHT22;13927;51.534;11.866;2023-07-29T10:28:40;25.50;99.90
26182;DHT22;13927;51.534;11.866;2023-07-29T10:31:07;25.60;99.90
26182;DHT22;13927;51.534;11.866;2023-07-29T10:33:34;25.50;99.90
26182;DHT22;13927;51.534;11.866;2023-07-29T10:36:01;25.50;99.90
26182;DHT22;13927;51.534;11.866;2023-07-29T10:38:28;25.40;99.90
26182;DHT22;13927;51.534;11.866;2023-07-29T10:40:56;25.50;99.90
26182;DHT22;13927;51.534;11.866;2023-07-29T10:43:35;25.70;99.90
26182;DHT22;13927;51.534;11.866;2023-07-29T10:46:22;26.00;99.90
26182;DHT22;13927;51.534;11.866;2023-07-29T10:49:09;26.20;99.90
26182;DHT22;13927;51.534;11.866;2023-07-29T10:51:37;26.80;99.90
26182;DHT22;13927;51.534;11.866;2023-07-29T10:54:11;27.30;99.90
26182;DHT22;13927;51.534;11.866;2023-07-29T10:56:43;27.30;99.90
26182;DHT22;13927;51.534;11.866;2023-07-29T11:01:57;26.70;99.90
26182;DHT22;13927;51.534;11.866;2023-07-29T11:04:25;26.70;99.90
26182;DHT22;13927;51.534;11.866;2023-07-29T11:17:45;25.70;99.90
26182;DHT22;13927;51.534;11.866;2023-07-29T11:20:29;25.70;99.90
26182;DHT22;13927;51.534;11.866;2023-07-29T11:22:58;25.60;99.90
26182;DHT22;13927;51.534;11.866;2023-07-29T11:25:29;25.60;99.90
26182;DHT22;13927;51.534;11.866;2023-07-29T11:27:58;25.60;99.90
26182;DHT22;13927;51.534;11.866;2023-07-29T11:30:25;25.60;99.90
26182;DHT22;13927;51.534;11.866;2023-07-29T11:32:53;25.70;99.90
26182;DHT22;13927;51.534;11.866;2023-07-29T11:35:23;25.60;99.90
26182;DHT22;13927;51.534;11.866;2023-07-29T11:37:51;25.50;99.90
26182;DHT22;13927;51.534;11.866;2023-07-29T11:40:20;25.20;99.90
26182;DHT22;13927;51.534;11.866;2023-07-29T11:42:49;24.80;99.90
26182;DHT22;13927;51.534;11.866;2023-07-29T11:45:20;24.60;99.90
26182;DHT22;13927;51.534;11.866;2023-07-29T11:47:47;24.50;99.90
26182;DHT22;13927;51.534;11.866;2023-07-29T11:50:14;24.40;99.90
26182;DHT22;13927;51.534;11.866;2023-07-29T11:52:42;24.40;99.90
26182;DHT22;13927;51.534;11.866;2023-07-29T11:55:11;24.30;99.90
26182;DHT22;13927;51.534;11.866;2023-07-29T11:57:39;24.20;99.90
26182;DHT22;13927;51.534;11.866;2023-07-29T12:00:08;24.10;99.90
26182;DHT22;13927;51.534;11.866;2023-07-29T12:02:45;24.10;99.90
26182;DHT22;13927;51.534;11.866;2023-07-29T12:05:13;24.10;99.90
26182;DHT22;13927;51.534;11.866;2023-07-29T12:07:42;24.00;99.90
26182;DHT22;13927;51.534;11.866;2023-07-29T12:10:10;24.00;99.90
26182;DHT22;13927;51.534;11.866;2023-07-29T12:12:49;24.00;99.90
26182;DHT22;13927;51.534;11.866;2023-07-29T12:15:27;24.10;99.90
26182;DHT22;13927;51.534;11.866;2023-07-29T12:17:58;24.20;99.90
26182;DHT22;13927;51.534;11.866;2023-07-29T12:20:26;24.60;99.90
26182;DHT22;13927;51.534;11.866;2023-07-29T12:22:57;24.90;99.90
26182;DHT22;13927;51.534;11.866;2023-07-29T12:25:28;25.20;99.90
26182;DHT22;13927;51.534;11.866;2023-07-29T12:27:55;25.80;99.90
26182;DHT22;13927;51.534;11.866;2023-07-29T12:30:27;26.20;99.90
26182;DHT22;13927;51.534;11.866;2023-07-29T12:32:54;26.50;99.90
26182;DHT22;13927;51.534;11.866;2023-07-29T12:35:20;26.70;99.90
26182;DHT22;13927;51.534;11.866;2023-07-29T12:37:46;26.70;99.90
26182;DHT22;13927;51.534;11.866;2023-07-29T12:40:24;26.80;99.90
26182;DHT22;13927;51.534;11.866;2023-07-29T12:42:51;27.00;99.90
26182;DHT22;13927;51.534;11.866;2023-07-29T12:45:19;27.10;99.90
26182;DHT22;13927;51.534;11.866;2023-07-29T12:47:49;27.40;99.90
26182;DHT22;13927;51.534;11.866;2023-07-29T12:50:17;27.70;99.90
26182;DHT22;13927;51.534;11.866;2023-07-29T12:52:43;28.00;99.90
26182;DHT22;13927;51.534;11.866;2023-07-29T12:55:10;28.10;99.90
26182;DHT22;13927;51.534;11.866;2023-07-29T12:57:41;28.00;99.90
26182;DHT22;13927;51.534;11.866;2023-07-29T13:00:10;28.10;99.90
26182;DHT22;13927;51.534;11.866;2023-07-29T13:02:39;28.50;99.90
26182;DHT22;13927;51.534;11.866;2023-07-29T13:05:10;28.90;99.90
26182;DHT22;13927;51.534;11.866;2023-07-29T13:07:42;29.10;99.90
26182;DHT22;13927;51.534;11.866;2023-07-29T13:10:11;29.40;99.90
26182;DHT22;13927;51.534;11.866;2023-07-29T13:12:40;29.60;99.90
26182;DHT22;13927;51.534;11.866;2023-07-29T13:15:09;29.40;99.90
26182;DHT22;13927;51.534;11.866;2023-07-29T13:17:37;29.50;99.90
26182;DHT22;13927;51.534;11.866;2023-07-29T13:20:06;29.50;99.90
26182;DHT22;13927;51.534;11.866;2023-07-29T13:22:34;29.50;99.90
26182;DHT22;13927;51.534;11.866;2023-07-29T13:25:00;29.60;99.90
26182;DHT22;13927;51.534;11.866;2023-07-29T13:27:27;29.40;99.90
26182;DHT22;13927;51.534;11.866;2023-07-29T13:29:55;29.50;99.90
26182;DHT22;13927;51.534;11.866;2023-07-29T13:32:22;29.70;99.90
26182;DHT22;13927;51.534;11.866;2023-07-29T13:34:48;29.90;99.90
26182;DHT22;13927;51.534;11.866;2023-07-29T13:37:16;29.90;99.90
26182;DHT22;13927;51.534;11.866;2023-07-29T13:39:43;29.70;99.90
26182;DHT22;13927;51.534;11.866;2023-07-29T13:42:10;29.50;99.90
26182;DHT22;13927;51.534;11.866;2023-07-29T13:44:36;29.10;99.90
26182;DHT22;13927;51.534;11.866;2023-07-29T13:47:02;28.90;99.90
26182;DHT22;13927;51.534;11.866;2023-07-29T13:49:29;28.50;99.90
26182;DHT22;13927;51.534;11.866;2023-07-29T13:51:56;28.20;99.90
26182;DHT22;13927;51.534;11.866;2023-07-29T13:54:23;27.80;99.90
26182;DHT22;13927;51.534;11.866;2023-07-29T13:56:49;27.50;99.90
26182;DHT22;13927;51.534;11.866;2023-07-29T13:59:15;27.40;99.90
26182;DHT22;13927;51.534;11.866;2023-07-29T14:01:41;27.30;99.90
26182;DHT22;13927;51.534;11.866;2023-07-29T14:04:07;27.10;99.90
26182;DHT22;13927;51.534;11.866;2023-07-29T14:06:33;26.80;99.90
26182;DHT22;13927;51.534;11.866;2023-07-29T14:08:59;26.60;99.90
26182;DHT22;13927;51.534;11.866;2023-07-29T14:11:25;26.50;99.90
26182;DHT22;13927;51.534;11.866;2023-07-29T14:13:51;26.40;99.90
26182;DHT22;13927;51.534;11.866;2023-07-29T14:16:16;25.80;99.90
26182;DHT22;13927;51.534;11.866;2023-07-29T14:18:42;25.30;99.90
26182;DHT22;13927;51.534;11.866;2023-07-29T14:21:08;25.10;99.90
26182;DHT22;13927;51.534;11.866;2023-07-29T14:23:34;25.00;99.90
26182;DHT22;13927;51.534;11.866;2023-07-29T14:26:00;24.90;99.90
26182;DHT22;13927;51.534;11.866;2023-07-29T14:28:26;24.20;99.90
26182;DHT22;13927;51.534;11.866;2023-07-29T14:30:51;23.40;99.90
26182;DHT22;13927;51.534;11.866;2023-07-29T14:33:17;22.70;99.90
26182;DHT22;13927;51.534;11.866;2023-07-29T14:35:43;22.20;99.90
26182;DHT22;13927;51.534;11.866;2023-07-29T14:38:09;21.50;99.90
26182;DHT22;13927;51.534;11.866;2023-07-29T14:40:35;21.30;99.90
26182;DHT22;13927;51.534;11.866;2023-07-29T14:43:00;21.10;99.90
26182;DHT22;13927;51.534;11.866;2023-07-29T14:45:26;21.10;99.90
26182;DHT22;13927;51.534;11.866;2023-07-29T14:47:52;21.10;99.90
26182;DHT22;13927;51.534;11.866;2023-07-29T14:50:18;21.00;99.90
26182;DHT22;13927;51.534;11.866;2023-07-29T14:52:44;21.00;99.90
26182;DHT22;13927;51.534;11.866;2023-07-29T14:55:10;21.00;99.90
26182;DHT22;13927;51.534;11.866;2023-07-29T14:57:36;21.10;99.90
26182;DHT22;13927;51.534;11.866;2023-07-29T15:00:03;21.10;99.90
26182;DHT22;13927;51.534;11.866;2023-07-29T15:02:32;21.20;99.90
26182;DHT22;13927;51.534;11.866;2023-07-29T15:04:58;21.20;99.90
26182;DHT22;13927;51.534;11.866;2023-07-29T15:07:24;21.40;99.90
26182;DHT22;13927;51.534;11.866;2023-07-29T15:09:51;21.60;99.90
26182;DHT22;13927;51.534;11.866;2023-07-29T15:12:17;21.90;99.90
26182;DHT22;13927;51.534;11.866;2023-07-29T15:14:43;22.20;99.90
26182;DHT22;13927;51.534;11.866;2023-07-29T15:17:09;22.40;99.90
26182;DHT22;13927;51.534;11.866;2023-07-29T15:19:35;22.60;99.90
26182;DHT22;13927;51.534;11.866;2023-07-29T15:22:01;22.80;99.90
26182;DHT22;13927;51.534;11.866;2023-07-29T15:24:30;23.10;99.90
26182;DHT22;13927;51.534;11.866;2023-07-29T15:26:56;23.30;99.90
26182;DHT22;13927;51.534;11.866;2023-07-29T15:29:22;23.50;99.90
26182;DHT22;13927;51.534;11.866;2023-07-29T15:31:48;23.60;99.90
26182;DHT22;13927;51.534;11.866;2023-07-29T15:34:15;23.60;99.90
26182;DHT22;13927;51.534;11.866;2023-07-29T15:36:41;23.40;99.90
26182;DHT22;13927;51.534;11.866;2023-07-29T15:39:07;23.40;99.90
26182;DHT22;13927;51.534;11.866;2023-07-29T15:41:34;23.30;99.90
26182;DHT22;13927;51.534;11.866;2023-07-29T15:44:00;23.20;99.90
26182;DHT22;13927;51.534;11.866;2023-07-29T15:46:26;23.10;99.90
26182;DHT22;13927;51.534;11.866;2023-07-29T15:48:52;22.70;99.90